CheckWX is a tool to help pilots better visualize weather data.  It is not intended as a substitute for an official pre-flight weather briefing.

21:06:09 UTC

KEWR METAR
Newark Liberty International Airport
Newark, New Jersey, USA
Current

15 mins ago

KEWR 182051Z 29024G31KT 10SM FEW028 SCT036 BKN250 05/M05 A2995 RMK AO2 PK WND 30031/2051 PRESRR SLP142 T00501050 53033
Observed
Feb-18 @ 20:51 UTC
Wind
  • 290° at 24 KTS
  • Gusting to 31 KTS
Visibility
10 SM
Flight Rules
VFR
Cloud Levels
  • Few at 2,800' AGL
  • Scattered at 3,600' AGL
  • Broken at 25,000' AGL
Temperature
C / 41°F
Dewpoint
-5°C / 23°F
Humidity
49%
Altimeter
29.95" Hg
Pressure
1014.2 hPa
Previous

26 mins ago

KEWR 182040Z 31017G25KT 10SM SCT028 BKN036 BKN250 06/M03 A2994 RMK AO2 PK WND 29029/2015 PRESRR T00561033
Observed
Feb-18 @ 20:40 UTC
Wind
  • 310° at 17 KTS
  • Gusting to 25 KTS
Visibility
10 SM
Flight Rules
VFR
Cloud Levels
  • Scattered at 2,800' AGL
  • Broken at 3,600' AGL
  • Broken at 25,000' AGL
Temperature
C / 43°F
Dewpoint
-3°C / 27°F
Humidity
53%
Altimeter
29.94" Hg
Pressure
1013.92 hPa
Previous

1 hour ago

KEWR 181951Z 28020G28KT 10SM BKN027 BKN041 BKN220 07/M01 A2990 RMK AO2 PK WND 25030/1917 SLP125 CIG 025V030 BKN027 V SCT T00671006
Observed
Feb-18 @ 19:51 UTC
Wind
  • 280° at 20 KTS
  • Gusting to 28 KTS
Visibility
10 SM
Flight Rules
MVFR
Cloud Levels
  • Broken at 2,700' AGL
  • Broken at 4,100' AGL
  • Broken at 22,000' AGL
Temperature
C / 45°F
Dewpoint
-1°C / 30°F
Humidity
57%
Altimeter
29.9" Hg
Pressure
1012.5 hPa